Time;durP1;ratioP1;P1;durP2;ratioP2;P2;SDS_P1;SDS_P2;PMS_P1;PMS_P2;Temp;Humidity;BMP_temperature;BMP_pressure;BME280_temperature;BME280_humidity;BME280_pressure;Samples;Min_cycle;Max_cycle;Signal;HPM_P1;HPM_P2
2023/05/29 00:00:33;;;;;;;4.07;3.30;;;;;;;16.24;70.39;101150.91;5026766;28;20241;-81
2023/05/29 00:02:59;;;;;;;4.23;3.80;;;;;;;16.24;70.42;101138.59;5026768;28;20207;-81
2023/05/29 00:05:25;;;;;;;3.67;3.37;;;;;;;16.19;70.49;101143.13;5027189;28;20731;-80
2023/05/29 00:07:53;;;;;;;5.60;3.57;;;;;;;16.13;71.33;101137.22;5026059;28;20237;-80
2023/05/29 00:10:19;;;;;;;4.33;3.40;;;;;;;16.03;71.24;101145.38;5026711;28;20257;-81
2023/05/29 00:12:46;;;;;;;6.00;3.87;;;;;;;16.06;70.98;101132.13;5026813;28;20207;-80
2023/05/29 00:15:12;;;;;;;5.57;4.20;;;;;;;16.10;70.93;101139.94;5026395;28;20280;-80
2023/05/29 00:17:39;;;;;;;4.00;3.53;;;;;;;16.08;70.89;101147.88;5025926;28;20274;-80
2023/05/29 00:20:08;;;;;;;4.03;3.70;;;;;;;16.01;70.46;101152.47;5026714;28;20612;-81
2023/05/29 00:22:36;;;;;;;6.53;3.73;;;;;;;15.98;70.37;101152.56;5021595;28;20216;-79
2023/05/29 00:25:05;;;;;;;3.80;3.50;;;;;;;15.91;70.64;101165.97;5025789;28;20199;-80
2023/05/29 00:27:32;;;;;;;5.63;3.83;;;;;;;15.88;70.71;101167.78;5025963;28;20589;-80
2023/05/29 00:29:59;;;;;;;4.77;3.50;;;;;;;15.85;71.21;101164.38;5026334;28;20298;-81
2023/05/29 00:32:25;;;;;;;4.10;3.57;;;;;;;15.86;70.90;101174.84;5027105;28;20689;-80
2023/05/29 00:34:51;;;;;;;8.30;3.70;;;;;;;15.75;71.37;101173.44;5026130;28;20227;-81
2023/05/29 00:37:18;;;;;;;7.77;3.33;;;;;;;15.72;71.32;101168.22;5026216;28;20405;-78
2023/05/29 00:39:44;;;;;;;4.13;3.23;;;;;;;15.71;70.77;101177.91;5026528;28;20290;-80
2023/05/29 00:42:12;;;;;;;3.50;3.00;;;;;;;15.66;70.66;101190.34;5026432;28;20238;-80
2023/05/29 00:44:38;;;;;;;6.90;3.57;;;;;;;15.61;70.31;101192.22;5026401;28;20209;-80
2023/05/29 00:47:05;;;;;;;4.73;2.80;;;;;;;15.54;70.88;101206.44;5026511;28;20237;-80
2023/05/29 00:49:32;;;;;;;3.73;3.30;;;;;;;15.53;71.18;101210.00;5026348;28;20818;-82
2023/05/29 00:51:58;;;;;;;4.97;3.40;;;;;;;15.54;71.08;101207.31;5025698;28;20697;-81
2023/05/29 00:54:28;;;;;;;5.13;3.10;;;;;;;15.52;71.34;101203.00;5025569;28;20211;-79
2023/05/29 00:56:55;;;;;;;4.77;3.47;;;;;;;15.48;71.08;101202.22;5025706;28;20210;-82
2023/05/29 00:59:23;;;;;;;6.40;3.47;;;;;;;15.50;71.04;101205.69;5026328;28;20264;-81
2023/05/29 01:01:50;;;;;;;4.37;2.90;;;;;;;15.41;70.83;101206.78;5025995;28;20214;-80
2023/05/29 01:04:17;;;;;;;3.43;3.13;;;;;;;15.25;71.04;101206.31;5026636;28;20205;-81
2023/05/29 01:06:43;;;;;;;4.87;3.20;;;;;;;15.18;71.53;101207.41;5026514;28;20208;-81
2023/05/29 01:09:10;;;;;;;4.97;3.00;;;;;;;15.19;71.78;101203.00;5026514;28;20230;-81
2023/05/29 01:11:46;;;;;;;4.20;2.57;;;;;;;15.06;72.46;101199.81;5026428;28;20770;-81
2023/05/29 01:14:20;;;;;;;5.30;3.50;;;;;;;15.07;72.32;101194.50;5027285;28;20708;-81
2023/05/29 01:16:55;;;;;;;4.83;2.83;;;;;;;14.89;73.11;101198.47;5025931;28;20298;-81
2023/05/29 01:19:35;;;;;;;5.60;3.37;;;;;;;14.91;73.40;101169.53;5026576;28;20225;-81
2023/05/29 01:22:14;;;;;;;7.37;3.30;;;;;;;14.90;73.23;101162.50;5027051;28;20660;-82
2023/05/29 01:24:50;;;;;;;5.37;2.93;;;;;;;14.92;72.57;101167.75;5026213;28;20273;-80
2023/05/29 01:27:18;;;;;;;5.37;3.07;;;;;;;14.86;72.65;101176.66;5026226;28;20214;-82
2023/05/29 01:29:47;;;;;;;4.80;3.23;;;;;;;14.84;72.27;101192.44;5026664;28;20331;-82
2023/05/29 01:32:14;;;;;;;5.13;3.43;;;;;;;14.89;71.69;101203.72;5027162;28;20278;-80
2023/05/29 01:34:40;;;;;;;5.80;3.03;;;;;;;14.91;71.68;101221.25;5026758;28;20272;-81
2023/05/29 01:37:06;;;;;;;6.70;2.97;;;;;;;14.83;71.69;101217.03;5026519;28;20226;-81
2023/05/29 01:39:34;;;;;;;7.60;3.27;;;;;;;14.80;71.76;101219.69;5025852;28;20253;-81
2023/05/29 01:42:01;;;;;;;4.70;3.03;;;;;;;14.80;71.45;101235.47;5026571;28;20245;-81
2023/05/29 01:44:31;;;;;;;4.57;2.53;;;;;;;14.67;71.70;101248.06;5027040;28;20206;-82
2023/05/29 01:46:58;;;;;;;3.83;2.70;;;;;;;14.67;71.64;101253.31;5026366;28;20261;-82
2023/05/29 01:49:25;;;;;;;4.03;2.50;;;;;;;14.54;71.83;101251.81;5026893;28;20238;-82
2023/05/29 01:51:51;;;;;;;4.37;2.90;;;;;;;14.63;71.71;101256.06;5026450;28;20210;-82
2023/05/29 01:54:18;;;;;;;4.90;2.93;;;;;;;14.59;71.76;101260.50;5024175;28;20202;-80
2023/05/29 01:56:46;;;;;;;4.37;2.67;;;;;;;14.60;71.34;101258.72;5013382;28;20225;-81
2023/05/29 01:59:13;;;;;;;5.03;3.30;;;;;;;14.60;71.73;101267.47;5013385;28;20311;-81
2023/05/29 02:01:42;;;;;;;4.50;2.93;;;;;;;14.62;71.66;101260.41;5012454;28;20213;-81
2023/05/29 02:04:08;;;;;;;3.73;2.67;;;;;;;14.59;71.14;101264.88;5012647;28;20206;-80
2023/05/29 02:06:34;;;;;;;5.03;2.50;;;;;;;14.51;71.03;101278.16;5012671;28;20252;-81
2023/05/29 02:09:01;;;;;;;4.30;2.63;;;;;;;14.55;71.03;101285.09;5013148;28;20230;-79
2023/05/29 02:11:27;;;;;;;10.83;3.47;;;;;;;14.56;70.77;101278.06;5013870;28;20206;-80
2023/05/29 02:13:54;;;;;;;6.10;2.83;;;;;;;14.48;71.39;101278.22;5014081;28;20572;-80
2023/05/29 02:16:21;;;;;;;5.30;2.80;;;;;;;14.47;71.07;101279.13;5013937;28;20237;-79
2023/05/29 02:18:48;;;;;;;5.00;2.57;;;;;;;14.39;71.13;101294.16;5012818;28;20754;-81
2023/05/29 02:21:15;;;;;;;4.13;2.60;;;;;;;14.36;70.54;101295.09;5011949;28;20215;-80
2023/05/29 02:23:41;;;;;;;4.57;3.10;;;;;;;14.34;71.13;101293.44;5036839;28;20233;-80
2023/05/29 02:26:08;;;;;;;5.87;2.93;;;;;;;14.27;71.05;101296.19;5039332;28;20207;-81
2023/05/29 02:28:34;;;;;;;4.27;2.67;;;;;;;14.25;70.83;101291.84;5039274;28;20274;-80
2023/05/29 02:31:02;;;;;;;5.40;2.77;;;;;;;14.07;70.59;101307.09;5035142;28;20261;-81
2023/05/29 02:33:29;;;;;;;3.63;2.70;;;;;;;14.09;70.96;101315.78;5029460;28;20205;-81
2023/05/29 02:35:57;;;;;;;5.60;3.00;;;;;;;14.04;71.31;101306.28;5021654;28;20599;-80
2023/05/29 02:38:23;;;;;;;4.80;2.90;;;;;;;14.00;71.07;101302.84;5017824;28;20205;-79
2023/05/29 02:40:49;;;;;;;4.47;3.00;;;;;;;13.92;71.34;101315.25;5017510;28;20284;-79
2023/05/29 02:43:16;;;;;;;3.17;2.70;;;;;;;13.90;71.71;101310.00;5018243;28;20265;-79
2023/05/29 02:45:42;;;;;;;5.97;2.50;;;;;;;13.91;71.48;101310.88;5017733;28;20202;-79
2023/05/29 02:48:08;;;;;;;4.07;2.43;;;;;;;13.89;71.33;101316.19;5017953;28;20213;-79
2023/05/29 02:50:35;;;;;;;3.57;2.57;;;;;;;13.80;71.51;101312.84;5018448;28;20253;-81
2023/05/29 02:53:03;;;;;;;2.77;2.40;;;;;;;13.85;71.20;101314.47;5018629;28;20213;-78
2023/05/29 02:55:31;;;;;;;4.20;2.80;;;;;;;13.84;71.27;101318.00;5018726;28;20232;-80
2023/05/29 02:57:59;;;;;;;2.63;2.27;;;;;;;13.81;71.87;101312.81;5018534;28;20309;-81
2023/05/29 03:00:26;;;;;;;3.80;2.83;;;;;;;13.84;71.89;101296.16;5018583;28;20238;-81
2023/05/29 03:02:52;;;;;;;4.10;3.07;;;;;;;13.75;71.81;101294.53;5019363;28;20257;-80
2023/05/29 03:05:18;;;;;;;4.00;2.27;;;;;;;13.71;72.50;101290.25;5019370;28;20210;-79
2023/05/29 03:07:45;;;;;;;5.30;2.80;;;;;;;13.70;71.54;101292.00;5019262;28;20251;-81
2023/05/29 03:10:17;;;;;;;6.57;2.67;;;;;;;13.67;71.98;101305.19;5019023;28;20232;-80
2023/05/29 03:12:43;;;;;;;5.53;2.70;;;;;;;13.55;72.54;101299.28;5019690;28;20209;-80
2023/05/29 03:15:10;;;;;;;4.47;2.40;;;;;;;13.58;72.46;101287.00;5019274;28;20217;-80
2023/05/29 03:17:38;;;;;;;5.10;2.53;;;;;;;13.53;72.19;101295.84;5019321;28;20291;-81
2023/05/29 03:20:06;;;;;;;5.73;2.70;;;;;;;13.54;72.48;101287.06;5019754;28;20317;-80
2023/05/29 03:22:32;;;;;;;4.13;2.50;;;;;;;13.43;72.06;101295.97;5015563;28;20217;-79
2023/05/29 03:24:59;;;;;;;4.67;2.63;;;;;;;13.41;72.74;101295.13;5019433;28;20213;-81
2023/05/29 03:27:27;;;;;;;3.10;2.80;;;;;;;13.45;72.56;101295.97;5020294;28;20206;-80
2023/05/29 03:29:54;;;;;;;6.27;2.77;;;;;;;13.44;72.72;101294.25;5020288;28;20272;-80
2023/05/29 03:32:21;;;;;;;4.47;2.47;;;;;;;13.38;73.32;101282.09;5020159;28;20213;-80
2023/05/29 03:34:47;;;;;;;4.23;2.47;;;;;;;13.25;73.32;101286.63;5021279;28;20219;-79
2023/05/29 03:37:14;;;;;;;4.43;2.33;;;;;;;13.26;73.50;101275.28;5020566;28;20257;-79
2023/05/29 03:39:40;;;;;;;5.30;2.67;;;;;;;13.25;73.60;101262.19;5020667;28;20276;-80
2023/05/29 03:42:07;;;;;;;3.80;2.20;;;;;;;13.26;74.21;101263.91;5019781;28;20237;-80
2023/05/29 03:44:34;;;;;;;7.20;2.90;;;;;;;13.26;73.84;101253.41;5018780;28;20685;-79
2023/05/29 03:47:01;;;;;;;3.10;2.20;;;;;;;13.22;74.14;101249.09;5019748;28;20213;-79
2023/05/29 03:49:27;;;;;;;3.50;2.00;;;;;;;13.17;73.66;101256.19;5020723;28;20255;-79
2023/05/29 03:51:53;;;;;;;5.13;2.77;;;;;;;13.12;73.38;101261.50;5019990;28;20214;-78
2023/05/29 03:54:20;;;;;;;4.50;2.20;;;;;;;13.09;73.84;101272.91;5020278;28;20233;-79
2023/05/29 03:56:46;;;;;;;6.37;2.77;;;;;;;13.07;73.48;101279.94;5019805;28;20326;-81
2023/05/29 03:59:12;;;;;;;4.90;3.23;;;;;;;12.99;73.33;101289.69;5020360;28;20296;-78
2023/05/29 04:01:40;;;;;;;4.40;2.73;;;;;;;12.74;74.70;101283.91;5020461;28;20843;-78
2023/05/29 04:04:07;;;;;;;5.97;3.00;;;;;;;12.47;75.50;101274.72;5020312;28;20244;-78
2023/05/29 04:06:33;;;;;;;6.50;3.00;;;;;;;12.38;76.38;101246.88;5020113;28;20201;-79
2023/05/29 04:08:59;;;;;;;4.77;2.30;;;;;;;12.33;76.63;101212.06;5020424;28;20236;-79
2023/05/29 04:11:26;;;;;;;5.93;2.50;;;;;;;12.07;78.20;101188.81;5020466;28;20257;-79
2023/05/29 04:13:52;;;;;;;6.13;3.20;;;;;;;11.95;78.99;101162.81;5020337;28;20203;-80
2023/05/29 04:16:18;;;;;;;6.70;2.97;;;;;;;11.90;79.26;101137.59;5020368;28;20301;-79
2023/05/29 04:18:46;;;;;;;5.17;2.73;;;;;;;11.45;81.15;101115.47;5020468;28;20212;-79
2023/05/29 04:21:12;;;;;;;9.13;2.83;;;;;;;11.31;82.35;101073.81;5019031;28;20270;-79
2023/05/29 04:23:39;;;;;;;4.27;2.40;;;;;;;11.42;82.38;101039.69;5019984;28;20204;-80
2023/05/29 04:26:06;;;;;;;5.03;2.70;;;;;;;11.52;81.98;101041.31;5020106;28;20226;-78
2023/05/29 04:28:32;;;;;;;7.07;2.60;;;;;;;11.66;80.94;101046.34;5021184;28;20692;-78
2023/05/29 04:30:58;;;;;;;4.07;2.40;;;;;;;11.56;81.25;101063.91;5020255;28;20783;-80
2023/05/29 04:33:25;;;;;;;4.93;2.73;;;;;;;11.48;81.78;101053.53;5020030;28;20204;-79
2023/05/29 04:35:53;;;;;;;5.70;2.80;;;;;;;11.11;83.59;101047.91;5020085;28;20207;-79
2023/05/29 04:38:24;;;;;;;5.53;2.60;;;;;;;10.85;85.65;101009.00;5021122;28;20265;-80
2023/05/29 04:40:51;;;;;;;5.67;3.00;;;;;;;10.80;86.47;100974.22;5021382;28;20313;-80
2023/05/29 04:43:17;;;;;;;4.40;2.60;;;;;;;10.80;87.12;100943.78;5019149;28;20227;-81
2023/05/29 04:45:44;;;;;;;5.03;3.20;;;;;;;10.76;87.18;100949.91;5019282;28;20207;-78
2023/05/29 04:48:10;;;;;;;5.73;2.30;;;;;;;10.93;86.53;100949.72;5020439;28;20207;-80
2023/05/29 04:50:38;;;;;;;5.63;2.80;;;;;;;11.13;85.77;100965.13;5020641;28;20230;-81
2023/05/29 04:53:06;;;;;;;6.40;3.87;;;;;;;11.08;85.34;100980.00;5020299;28;20213;-79
2023/05/29 04:55:32;;;;;;;3.40;2.73;;;;;;;11.18;85.65;100991.19;5020451;28;20207;-80
2023/05/29 04:58:00;;;;;;;6.27;3.10;;;;;;;11.17;85.09;101000.78;5020382;28;20238;-80
2023/05/29 05:00:26;;;;;;;7.80;2.73;;;;;;;11.27;85.21;101012.84;5041515;23;20312;-79
2023/05/29 05:02:53;;;;;;;5.87;3.30;;;;;;;11.00;86.54;101006.22;5023239;28;20211;-79
2023/05/29 05:05:20;;;;;;;8.77;3.00;;;;;;;10.92;87.54;100994.97;5022849;28;20218;-79
2023/05/29 05:07:47;;;;;;;6.53;2.60;;;;;;;10.83;88.76;100971.59;5022148;28;20207;-78
2023/05/29 05:10:14;;;;;;;9.57;3.03;;;;;;;10.90;88.84;100961.06;5023702;28;20254;-79
2023/05/29 05:12:41;;;;;;;8.93;3.20;;;;;;;10.81;89.93;100952.47;5024287;28;20229;-79
2023/05/29 05:15:08;;;;;;;8.17;3.20;;;;;;;10.77;90.53;100933.34;5022890;28;20716;-79
2023/05/29 05:17:35;;;;;;;6.10;2.70;;;;;;;10.63;91.71;100917.84;5022944;28;20233;-78
2023/05/29 05:20:03;;;;;;;10.33;3.00;;;;;;;10.72;91.65;100912.53;5022898;28;20222;-78
2023/05/29 05:22:29;;;;;;;5.37;3.27;;;;;;;10.58;92.39;100906.59;5022817;28;20234;-79
2023/05/29 05:24:56;;;;;;;8.10;3.10;;;;;;;10.53;92.71;100911.03;5023345;28;20275;-78
2023/05/29 05:27:24;;;;;;;8.70;3.77;;;;;;;10.40;94.01;100902.44;5022322;28;20229;-78
2023/05/29 05:29:50;;;;;;;8.40;3.33;;;;;;;10.43;94.81;100883.28;5021633;28;20254;-78
2023/05/29 05:32:17;;;;;;;4.83;2.90;;;;;;;10.43;95.49;100868.50;5022637;28;20276;-78
2023/05/29 05:34:43;;;;;;;8.07;3.80;;;;;;;10.45;95.32;100865.88;5022669;28;20206;-78
2023/05/29 05:37:09;;;;;;;5.30;3.30;;;;;;;10.62;95.36;100876.09;5021302;28;20289;-79
2023/05/29 05:39:36;;;;;;;6.60;3.47;;;;;;;10.59;96.03;100863.94;5022282;28;20321;-78
2023/05/29 05:42:02;;;;;;;6.47;4.10;;;;;;;10.86;96.20;100867.09;5022609;28;20604;-79
2023/05/29 05:44:30;;;;;;;8.23;3.30;;;;;;;11.18;95.46;100878.84;5025397;28;20206;-79
2023/05/29 05:46:56;;;;;;;9.40;3.03;;;;;;;11.46;93.80;100918.53;5025348;28;20202;-79
2023/05/29 05:49:22;;;;;;;15.27;3.83;;;;;;;11.76;91.46;100958.16;5024843;28;20253;-79
2023/05/29 05:51:50;;;;;;;6.80;2.73;;;;;;;11.66;89.17;101012.34;5025426;28;20207;-79
2023/05/29 05:54:16;;;;;;;8.73;3.47;;;;;;;11.75;88.87;101040.97;5026102;28;20210;-79
2023/05/29 05:56:42;;;;;;;5.97;3.13;;;;;;;11.76;88.65;101065.41;5026548;28;20227;-79
2023/05/29 05:59:09;;;;;;;7.17;3.53;;;;;;;11.86;88.98;101073.09;5030138;28;20669;-79
2023/05/29 06:01:38;;;;;;;7.13;3.83;;;;;;;11.99;88.70;101072.94;5029354;28;20236;-79
2023/05/29 06:04:04;;;;;;;7.37;3.13;;;;;;;12.20;87.27;101100.56;5028640;28;20202;-79
2023/05/29 06:06:31;;;;;;;6.37;3.30;;;;;;;12.32;86.18;101135.25;5029060;28;20232;-79
2023/05/29 06:08:58;;;;;;;8.27;3.00;;;;;;;12.57;84.15;101170.69;5030111;28;20298;-78
2023/05/29 06:11:25;;;;;;;7.33;2.80;;;;;;;12.53;84.49;101188.22;5029324;28;20236;-79
2023/05/29 06:13:52;;;;;;;8.03;2.93;;;;;;;12.77;84.42;101201.81;5029336;28;20257;-79
2023/05/29 06:16:18;;;;;;;8.63;3.00;;;;;;;12.87;83.56;101222.59;5028794;28;20216;-79
2023/05/29 06:18:46;;;;;;;7.40;2.53;;;;;;;13.03;79.64;101280.88;5029371;28;20235;-79
2023/05/29 06:21:13;;;;;;;10.17;2.70;;;;;;;13.20;76.54;101350.50;5029225;28;20255;-79
2023/05/29 06:23:41;;;;;;;9.97;2.20;;;;;;;13.32;75.38;101410.69;5029296;28;20217;-79
2023/05/29 06:26:07;;;;;;;6.33;2.43;;;;;;;13.25;74.95;101446.56;5029196;28;20265;-79
2023/05/29 06:28:34;;;;;;;6.47;2.70;;;;;;;13.23;74.69;101474.56;5029580;28;20211;-79
2023/05/29 06:31:00;;;;;;;7.00;2.93;;;;;;;13.30;74.50;101497.25;5029424;28;20797;-79
2023/05/29 06:33:27;;;;;;;4.53;2.33;;;;;;;13.46;74.29;101500.53;5029423;28;20201;-79
2023/05/29 06:35:54;;;;;;;5.00;2.50;;;;;;;13.63;73.57;101520.41;5030176;28;20219;-79
2023/05/29 06:38:20;;;;;;;6.83;2.43;;;;;;;13.73;72.57;101552.63;5029376;28;20269;-79
2023/05/29 06:40:47;;;;;;;6.40;2.43;;;;;;;13.72;73.08;101564.88;5030696;28;20613;-79
2023/05/29 06:43:13;;;;;;;7.83;2.47;;;;;;;13.55;73.11;101566.88;5031293;28;20209;-79
2023/05/29 06:45:40;;;;;;;8.87;3.03;;;;;;;13.53;73.46;101574.75;5033952;28;20209;-79
2023/05/29 06:48:06;;;;;;;8.17;2.67;;;;;;;13.59;72.57;101569.41;5034641;28;20245;-79
2023/05/29 06:50:33;;;;;;;6.30;2.50;;;;;;;13.62;72.54;101576.41;5034720;28;20248;-79
2023/05/29 06:53:01;;;;;;;5.80;3.03;;;;;;;13.72;72.64;101562.25;5035731;28;20214;-79
2023/05/29 06:55:28;;;;;;;5.87;2.40;;;;;;;13.82;72.49;101586.63;5035882;28;20205;-79
2023/05/29 06:57:54;;;;;;;9.57;2.70;;;;;;;13.93;72.21;101576.81;5035157;28;20229;-79
2023/05/29 07:00:21;;;;;;;5.27;2.47;;;;;;;13.97;70.48;101609.16;5027625;28;20261;-79
2023/05/29 07:02:47;;;;;;;8.30;2.90;;;;;;;14.00;70.89;101636.22;5022477;28;20213;-79
2023/05/29 07:05:13;;;;;;;5.77;2.23;;;;;;;14.03;71.44;101638.81;5022644;28;20232;-79
2023/05/29 07:07:40;;;;;;;7.07;2.80;;;;;;;14.11;70.24;101651.81;5021801;28;20206;-79
2023/05/29 07:10:08;;;;;;;6.20;2.63;;;;;;;14.23;70.60;101658.66;5022406;28;20246;-78
2023/05/29 07:12:34;;;;;;;5.43;2.30;;;;;;;14.33;70.37;101648.88;5021858;28;20206;-79
2023/05/29 07:15:01;;;;;;;5.80;2.83;;;;;;;14.37;69.51;101672.47;5021790;28;20253;-79
2023/05/29 07:17:27;;;;;;;10.30;2.87;;;;;;;14.37;69.55;101684.72;5020438;28;20229;-79
2023/05/29 07:19:54;;;;;;;5.00;2.40;;;;;;;14.40;69.65;101682.91;5021937;28;20311;-79
2023/05/29 07:22:20;;;;;;;8.07;2.80;;;;;;;14.52;69.78;101684.50;5022967;28;20300;-79
2023/05/29 07:24:46;;;;;;;7.90;2.37;;;;;;;14.57;69.43;101692.34;5022768;28;20229;-79
2023/05/29 07:27:14;;;;;;;4.20;2.23;;;;;;;14.56;69.60;101686.22;5022388;28;20205;-78
2023/05/29 07:29:41;;;;;;;6.13;2.33;;;;;;;14.62;68.93;101691.38;5025562;28;20233;-79
2023/05/29 07:32:07;;;;;;;6.07;2.47;;;;;;;14.69;68.57;101703.53;5027910;28;20210;-79
2023/05/29 07:34:33;;;;;;;4.77;2.53;;;;;;;14.74;68.18;101711.34;5027212;28;20217;-79
2023/05/29 07:37:02;;;;;;;10.00;3.03;;;;;;;14.63;69.31;101710.66;5026881;28;20233;-79
2023/05/29 07:39:28;;;;;;;10.30;3.23;;;;;;;14.50;69.94;101707.31;5027418;28;20765;-79
2023/05/29 07:41:55;;;;;;;8.43;2.70;;;;;;;14.69;69.09;101674.63;5027039;28;20214;-79
2023/05/29 07:44:22;;;;;;;9.10;2.83;;;;;;;14.77;68.99;101692.06;5024831;28;20209;-79
2023/05/29 07:46:49;;;;;;;6.17;3.40;;;;;;;14.83;68.37;101697.19;5025002;28;20264;-79
2023/05/29 07:49:15;;;;;;;8.63;2.70;;;;;;;14.84;68.17;101699.78;5027576;28;20210;-79
2023/05/29 07:51:42;;;;;;;7.07;2.70;;;;;;;14.66;68.48;101708.84;5026212;28;20212;-80
2023/05/29 07:54:08;;;;;;;5.00;2.97;;;;;;;14.85;69.03;101692.78;5018052;28;20265;-78
2023/05/29 07:56:35;;;;;;;4.17;2.30;;;;;;;14.86;68.46;101698.00;5024251;28;20215;-80
2023/05/29 07:59:01;;;;;;;6.90;2.73;;;;;;;14.91;67.79;101702.34;5026444;28;20234;-80
2023/05/29 08:01:29;;;;;;;7.17;2.97;;;;;;;14.77;68.37;101702.56;5026336;28;20268;-80
2023/05/29 08:03:56;;;;;;;7.23;3.03;;;;;;;14.94;68.07;101708.38;5026079;28;20440;-79
2023/05/29 08:06:22;;;;;;;4.67;2.20;;;;;;;14.89;68.41;101704.97;5027125;28;20643;-79
2023/05/29 08:08:48;;;;;;;5.10;2.47;;;;;;;15.04;67.15;101701.22;5025830;28;20236;-79
2023/05/29 08:11:15;;;;;;;7.20;2.80;;;;;;;15.03;67.46;101728.41;5023266;28;20225;-79
2023/05/29 08:13:41;;;;;;;4.07;2.23;;;;;;;14.74;66.48;101726.25;5027751;28;20210;-80
2023/05/29 08:16:07;;;;;;;5.40;2.70;;;;;;;14.96;67.51;101727.63;5026810;28;20210;-80
2023/05/29 08:18:36;;;;;;;9.13;2.50;;;;;;;15.13;68.09;101721.25;5027754;28;20234;-80
2023/05/29 08:21:02;;;;;;;5.47;2.40;;;;;;;15.28;66.78;101726.22;5028046;28;20265;-80
2023/05/29 08:23:29;;;;;;;4.80;2.73;;;;;;;15.44;66.13;101746.13;5028480;28;20233;-80
2023/05/29 08:25:55;;;;;;;8.50;3.30;;;;;;;15.60;64.34;101765.13;5026681;28;20210;-80
2023/05/29 08:28:22;;;;;;;7.07;2.60;;;;;;;15.66;65.78;101775.53;5023834;28;20210;-79
2023/05/29 08:30:48;;;;;;;6.03;3.63;;;;;;;15.79;65.38;101778.81;5016469;28;20233;-79
2023/05/29 08:33:15;;;;;;;6.40;2.10;;;;;;;15.75;65.56;101771.03;5017098;28;20210;-79
2023/05/29 08:35:43;;;;;;;4.87;2.20;;;;;;;15.83;63.14;101805.97;5014343;28;20279;-79
2023/05/29 08:38:09;;;;;;;5.20;2.20;;;;;;;15.93;62.50;101825.09;5015408;28;20230;-78
2023/05/29 08:40:37;;;;;;;4.00;2.60;;;;;;;15.96;62.91;101856.66;5015263;28;20240;-79
2023/05/29 08:43:08;;;;;;;7.07;2.40;;;;;;;15.92;61.26;101887.44;5014710;28;20206;-78
2023/05/29 08:45:40;;;;;;;4.97;1.97;;;;;;;15.89;61.92;101906.78;5014987;28;20210;-78
2023/05/29 08:48:08;;;;;;;4.17;2.03;;;;;;;15.99;61.31;101917.16;5014794;28;20260;-79
2023/05/29 08:50:35;;;;;;;4.70;2.33;;;;;;;16.07;61.38;101926.69;5014609;28;20233;-78
2023/05/29 08:53:04;;;;;;;5.57;2.10;;;;;;;16.21;62.27;101921.16;5014880;28;20233;-78
2023/05/29 08:55:32;;;;;;;3.77;1.93;;;;;;;16.33;61.83;101892.81;5015224;28;20206;-79
2023/05/29 08:57:58;;;;;;;5.90;2.33;;;;;;;16.36;62.04;101909.44;5013084;28;20581;-78
2023/05/29 09:00:28;;;;;;;8.10;2.40;;;;;;;16.35;61.97;101902.44;5016835;28;20871;-79
2023/05/29 09:02:55;;;;;;;6.10;2.20;;;;;;;16.32;61.65;101917.44;5022737;28;20213;-80
2023/05/29 09:05:21;;;;;;;10.33;2.60;;;;;;;16.43;60.59;101921.63;5022743;28;20211;-80
2023/05/29 09:07:49;;;;;;;5.90;2.10;;;;;;;16.48;60.48;101932.91;5020915;28;20211;-80
2023/05/29 09:10:17;;;;;;;4.73;2.73;;;;;;;16.48;60.87;101943.47;5020065;28;20261;-80
2023/05/29 09:12:49;;;;;;;6.97;2.10;;;;;;;16.48;60.84;101932.06;5021007;28;20209;-81
2023/05/29 09:15:20;;;;;;;4.50;2.77;;;;;;;16.58;60.80;101930.97;5021633;28;20206;-81
2023/05/29 09:17:50;;;;;;;4.00;2.70;;;;;;;16.51;59.92;101944.28;5019479;28;20716;-81
2023/05/29 09:20:18;;;;;;;5.70;2.70;;;;;;;16.55;59.91;101945.97;5021837;28;20307;-79
2023/05/29 09:22:54;;;;;;;5.93;2.30;;;;;;;16.24;59.88;101950.06;5024237;28;20289;-79
2023/05/29 09:25:23;;;;;;;8.57;2.80;;;;;;;16.34;60.72;101937.59;5018006;28;20700;-79
2023/05/29 09:27:52;;;;;;;6.07;2.30;;;;;;;16.47;61.27;101931.19;5021939;28;20202;-80
2023/05/29 09:30:32;;;;;;;5.33;2.13;;;;;;;16.66;60.71;101900.03;5021149;28;20268;-80
2023/05/29 09:33:01;;;;;;;5.77;2.20;;;;;;;16.80;59.92;101920.84;5036889;28;20293;-80
2023/05/29 09:35:33;;;;;;;4.83;2.47;;;;;;;16.86;58.80;101931.28;5037709;28;20279;-80
2023/05/29 09:37:59;;;;;;;6.30;2.00;;;;;;;16.92;58.13;101969.88;5029453;28;20229;-80
2023/05/29 09:40:27;;;;;;;7.27;2.43;;;;;;;16.97;57.85;101982.97;5029799;28;20758;-79
2023/05/29 09:42:54;;;;;;;6.17;1.90;;;;;;;16.98;58.81;101987.34;5020842;28;20267;-78
2023/05/29 09:45:23;;;;;;;4.97;2.47;;;;;;;17.03;57.46;102004.81;5022671;28;20271;-78
2023/05/29 09:47:51;;;;;;;7.97;2.30;;;;;;;17.12;59.22;102021.34;5022646;28;20732;-78
2023/05/29 09:50:26;;;;;;;5.80;2.60;;;;;;;17.22;58.33;101993.88;5020894;28;20222;-78
2023/05/29 09:52:53;;;;;;;7.23;2.33;;;;;;;17.15;57.76;102016.03;5019852;28;20206;-77
2023/05/29 09:55:21;;;;;;;5.17;2.50;;;;;;;17.32;57.71;101998.03;5017462;28;20316;-79
2023/05/29 09:57:49;;;;;;;4.83;2.03;;;;;;;17.31;57.52;102008.66;5015846;28;20237;-78
2023/05/29 10:00:18;;;;;;;6.07;2.27;;;;;;;17.28;58.58;102004.28;5016357;28;20372;-77
2023/05/29 10:02:44;;;;;;;5.93;2.23;;;;;;;17.40;57.18;101987.31;5016968;28;20926;-78
2023/05/29 10:05:11;;;;;;;4.87;1.97;;;;;;;17.25;56.46;102012.28;5017409;28;20209;-77
2023/05/29 10:07:42;;;;;;;4.10;2.70;;;;;;;17.47;56.40;102026.75;5015297;28;20296;-77
2023/05/29 10:10:09;;;;;;;5.23;1.97;;;;;;;17.55;55.73;102045.06;5015286;28;20724;-78
2023/05/29 10:12:37;;;;;;;7.03;2.40;;;;;;;17.66;57.08;102048.34;5016229;28;20701;-77
2023/05/29 10:15:12;;;;;;;7.80;2.67;;;;;;;17.78;56.06;102038.38;5015730;28;20726;-77
2023/05/29 10:17:40;;;;;;;6.37;3.27;;;;;;;17.87;56.47;102048.75;5016074;28;20210;-78
2023/05/29 10:20:15;;;;;;;5.53;2.20;;;;;;;17.91;55.36;102055.72;5016804;28;20641;-78
2023/05/29 10:22:47;;;;;;;3.97;2.00;;;;;;;17.86;54.45;102076.97;5014642;28;20201;-78
2023/05/29 10:25:14;;;;;;;5.70;2.37;;;;;;;17.91;55.69;102075.97;5017284;28;20260;-77
2023/05/29 10:27:40;;;;;;;4.97;2.00;;;;;;;17.92;54.31;102083.00;5017096;28;20241;-77
2023/05/29 10:30:16;;;;;;;5.83;2.50;;;;;;;17.91;53.08;102112.97;5017631;28;20612;-78
2023/05/29 10:32:57;;;;;;;6.47;2.50;;;;;;;17.94;54.66;102118.16;5017779;28;20210;-77
2023/05/29 10:35:31;;;;;;;4.73;2.37;;;;;;;18.00;53.16;102113.63;5017664;28;20734;-78
2023/05/29 10:38:04;;;;;;;7.10;2.10;;;;;;;17.91;52.13;102132.31;5017787;28;20237;-78
2023/05/29 10:40:31;;;;;;;5.87;2.10;;;;;;;17.95;52.70;102155.13;5018619;28;20226;-78
2023/05/29 10:42:58;;;;;;;4.43;2.53;;;;;;;18.09;52.93;102146.03;5016937;28;20635;-78
2023/05/29 10:45:52;;;;;;;3.63;2.07;;;;;;;18.13;53.04;102137.13;5020274;28;20256;-78
2023/05/29 10:48:41;;;;;;;4.13;2.10;;;;;;;17.94;52.02;102123.44;5016095;28;20206;-78
2023/05/29 10:51:08;;;;;;;5.27;2.00;;;;;;;17.93;53.06;102133.16;5016774;28;20226;-78
2023/05/29 10:53:39;;;;;;;4.57;2.47;;;;;;;18.00;51.90;102140.06;5015934;28;20210;-78
2023/05/29 10:56:09;;;;;;;5.67;2.23;;;;;;;18.03;51.01;102142.59;5016517;28;20233;-78
2023/05/29 10:58:35;;;;;;;4.93;2.17;;;;;;;18.31;52.09;102157.81;5016446;28;20222;-79
2023/05/29 11:01:03;;;;;;;3.27;2.10;;;;;;;18.35;51.67;102171.84;5052598;23;20245;-81
2023/05/29 11:03:31;;;;;;;2.53;1.77;;;;;;;18.53;50.35;102173.19;5043933;28;20217;-81
2023/05/29 11:05:59;;;;;;;3.93;1.83;;;;;;;18.63;51.10;102185.28;5043685;28;20210;-81
2023/05/29 11:08:33;;;;;;;4.17;2.20;;;;;;;18.55;49.97;102169.63;5043178;28;20209;-81
2023/05/29 11:11:00;;;;;;;5.40;2.50;;;;;;;18.71;50.77;102204.50;5043386;28;20283;-80
2023/05/29 11:13:28;;;;;;;4.77;2.30;;;;;;;18.41;50.14;102209.63;5041017;28;20202;-81
2023/05/29 11:16:20;;;;;;;5.73;2.63;;;;;;;18.35;51.06;102219.44;5041041;28;20289;-81
2023/05/29 11:18:49;;;;;;;3.20;2.17;;;;;;;18.60;50.76;102178.28;5040730;28;20233;-81
2023/05/29 11:21:50;;;;;;;4.00;1.70;;;;;;;18.84;50.08;102181.25;5041504;28;20237;-81
2023/05/29 11:24:22;;;;;;;4.93;2.63;;;;;;;19.06;48.78;102205.38;5034090;28;20221;-81
2023/05/29 11:26:49;;;;;;;5.67;2.20;;;;;;;19.29;48.28;102225.97;5041870;28;20584;-81